sensor_id;sensor_type;location;lat;lon;timestamp;pressure;altitude;pressure_sealevel;temperature;humidity
32933;BME280;19444;50.518;10.870;2023-06-19T00:00:34;96236.63;;;21.11;76.84
32933;BME280;19444;50.518;10.870;2023-06-19T00:03:31;96231.97;;;21.15;68.33
32933;BME280;19444;50.518;10.870;2023-06-19T00:06:28;96237.72;;;20.99;68.92
32933;BME280;19444;50.518;10.870;2023-06-19T00:09:25;96226.59;;;21.29;64.55
32933;BME280;19444;50.518;10.870;2023-06-19T00:12:22;96231.84;;;20.90;82.76
32933;BME280;19444;50.518;10.870;2023-06-19T00:15:18;96229.22;;;21.05;73.64
32933;BME280;19444;50.518;10.870;2023-06-19T00:18:15;96227.25;;;21.05;82.06
32933;BME280;19444;50.518;10.870;2023-06-19T00:21:14;96229.06;;;20.80;83.33
32933;BME280;19444;50.518;10.870;2023-06-19T00:24:11;96218.13;;;20.69;93.58
32933;BME280;19444;50.518;10.870;2023-06-19T00:27:08;96226.78;;;20.89;79.03
32933;BME280;19444;50.518;10.870;2023-06-19T00:30:06;96223.22;;;20.81;83.35
32933;BME280;19444;50.518;10.870;2023-06-19T00:33:04;96224.34;;;20.73;75.84
32933;BME280;19444;50.518;10.870;2023-06-19T00:36:01;96225.59;;;20.86;74.15
32933;BME280;19444;50.518;10.870;2023-06-19T00:38:58;96219.78;;;20.91;87.21
32933;BME280;19444;50.518;10.870;2023-06-19T00:41:56;96220.59;;;20.95;74.70
32933;BME280;19444;50.518;10.870;2023-06-19T00:44:52;96221.78;;;20.98;83.51
32933;BME280;19444;50.518;10.870;2023-06-19T00:47:53;96218.56;;;20.82;84.10
32933;BME280;19444;50.518;10.870;2023-06-19T00:50:51;96222.06;;;20.79;88.14
32933;BME280;19444;50.518;10.870;2023-06-19T00:53:48;96225.56;;;20.79;91.72
32933;BME280;19444;50.518;10.870;2023-06-19T00:56:45;96220.59;;;20.95;75.21
32933;BME280;19444;50.518;10.870;2023-06-19T00:59:42;96217.00;;;20.77;75.57
32933;BME280;19444;50.518;10.870;2023-06-19T01:02:39;96220.16;;;20.86;86.16
32933;BME280;19444;50.518;10.870;2023-06-19T01:05:36;96225.06;;;20.66;77.61
32933;BME280;19444;50.518;10.870;2023-06-19T01:11:52;96211.25;;;20.96;68.47
32933;BME280;19444;50.518;10.870;2023-06-19T01:14:57;96202.88;;;20.61;84.86
32933;BME280;19444;50.518;10.870;2023-06-19T01:17:58;96199.69;;;20.48;91.47
32933;BME280;19444;50.518;10.870;2023-06-19T01:20:57;96205.72;;;19.83;95.88
32933;BME280;19444;50.518;10.870;2023-06-19T01:23:54;96207.13;;;20.10;93.88
32933;BME280;19444;50.518;10.870;2023-06-19T01:26:50;96194.38;;;20.18;95.61
32933;BME280;19444;50.518;10.870;2023-06-19T01:29:48;96193.75;;;20.39;80.90
32933;BME280;19444;50.518;10.870;2023-06-19T01:36:03;96188.50;;;20.64;68.85
32933;BME280;19444;50.518;10.870;2023-06-19T01:39:00;96195.94;;;20.74;87.78
32933;BME280;19444;50.518;10.870;2023-06-19T01:41:59;96195.50;;;20.61;76.90
32933;BME280;19444;50.518;10.870;2023-06-19T01:44:56;96194.78;;;20.75;90.55
32933;BME280;19444;50.518;10.870;2023-06-19T01:47:53;96203.06;;;20.31;95.60
32933;BME280;19444;50.518;10.870;2023-06-19T01:50:51;96197.28;;;20.39;91.58
32933;BME280;19444;50.518;10.870;2023-06-19T01:53:47;96197.63;;;20.38;92.78
32933;BME280;19444;50.518;10.870;2023-06-19T01:56:44;96195.41;;;19.99;98.52
32933;BME280;19444;50.518;10.870;2023-06-19T01:59:41;96188.00;;;20.44;95.62
32933;BME280;19444;50.518;10.870;2023-06-19T02:02:38;96187.66;;;20.53;91.42
32933;BME280;19444;50.518;10.870;2023-06-19T02:05:35;96193.28;;;20.30;96.32
32933;BME280;19444;50.518;10.870;2023-06-19T02:08:36;96179.81;;;20.44;92.99
32933;BME280;19444;50.518;10.870;2023-06-19T02:11:33;96172.28;;;20.27;90.77
32933;BME280;19444;50.518;10.870;2023-06-19T02:14:30;96177.34;;;20.28;90.90
32933;BME280;19444;50.518;10.870;2023-06-19T02:17:26;96175.38;;;20.22;97.56
32933;BME280;19444;50.518;10.870;2023-06-19T02:20:24;96179.19;;;20.13;89.04
32933;BME280;19444;50.518;10.870;2023-06-19T02:23:21;96184.19;;;20.08;94.90
32933;BME280;19444;50.518;10.870;2023-06-19T02:26:18;96189.41;;;20.27;82.01
32933;BME280;19444;50.518;10.870;2023-06-19T02:29:15;96185.66;;;19.95;97.89
32933;BME280;19444;50.518;10.870;2023-06-19T02:32:12;96177.00;;;20.33;84.83
32933;BME280;19444;50.518;10.870;2023-06-19T02:35:11;96190.16;;;20.24;90.77
32933;BME280;19444;50.518;10.870;2023-06-19T02:38:08;96186.06;;;19.97;94.39
32933;BME280;19444;50.518;10.870;2023-06-19T02:41:05;96193.00;;;19.91;93.93
32933;BME280;19444;50.518;10.870;2023-06-19T02:44:02;96191.09;;;19.95;90.38
32933;BME280;19444;50.518;10.870;2023-06-19T02:46:59;96194.13;;;19.86;97.89
32933;BME280;19444;50.518;10.870;2023-06-19T02:50:00;96190.63;;;19.85;93.11
32933;BME280;19444;50.518;10.870;2023-06-19T02:52:57;96194.44;;;19.44;97.58
32933;BME280;19444;50.518;10.870;2023-06-19T02:55:54;96186.22;;;19.37;100.00
32933;BME280;19444;50.518;10.870;2023-06-19T02:58:51;96181.53;;;19.67;100.00
32933;BME280;19444;50.518;10.870;2023-06-19T03:01:48;96189.31;;;19.69;100.00
32933;BME280;19444;50.518;10.870;2023-06-19T03:04:45;96185.75;;;19.65;91.17
32933;BME280;19444;50.518;10.870;2023-06-19T03:07:42;96181.16;;;19.72;82.43
32933;BME280;19444;50.518;10.870;2023-06-19T03:10:39;96186.50;;;19.62;95.61
32933;BME280;19444;50.518;10.870;2023-06-19T03:13:50;96193.56;;;19.66;97.42
32933;BME280;19444;50.518;10.870;2023-06-19T03:16:47;96189.78;;;19.78;87.89
32933;BME280;19444;50.518;10.870;2023-06-19T03:19:44;96195.84;;;19.64;90.00
32933;BME280;19444;50.518;10.870;2023-06-19T03:22:41;96189.09;;;19.51;99.06
32933;BME280;19444;50.518;10.870;2023-06-19T03:25:38;96185.63;;;19.54;93.08
32933;BME280;19444;50.518;10.870;2023-06-19T03:28:39;96190.28;;;19.53;93.75
32933;BME280;19444;50.518;10.870;2023-06-19T03:31:36;96199.63;;;19.56;92.47
32933;BME280;19444;50.518;10.870;2023-06-19T03:34:33;96195.78;;;19.57;98.42
32933;BME280;19444;50.518;10.870;2023-06-19T03:37:30;96199.09;;;19.10;98.21
32933;BME280;19444;50.518;10.870;2023-06-19T03:40:29;96203.53;;;19.21;93.77
32933;BME280;19444;50.518;10.870;2023-06-19T03:43:28;96200.38;;;19.19;96.81
32933;BME280;19444;50.518;10.870;2023-06-19T03:46:25;96197.22;;;19.14;96.88
32933;BME280;19444;50.518;10.870;2023-06-19T03:49:21;96203.25;;;18.70;100.00
32933;BME280;19444;50.518;10.870;2023-06-19T03:52:18;96195.09;;;19.00;100.00
32933;BME280;19444;50.518;10.870;2023-06-19T03:55:15;96198.13;;;19.25;99.03
32933;BME280;19444;50.518;10.870;2023-06-19T03:58:12;96203.47;;;19.18;92.13
32933;BME280;19444;50.518;10.870;2023-06-19T04:01:09;96195.28;;;19.14;100.00
32933;BME280;19444;50.518;10.870;2023-06-19T04:04:06;96197.53;;;19.09;95.66
32933;BME280;19444;50.518;10.870;2023-06-19T04:07:03;96198.41;;;19.16;99.87
32933;BME280;19444;50.518;10.870;2023-06-19T04:10:00;96192.41;;;19.33;87.62
32933;BME280;19444;50.518;10.870;2023-06-19T04:12:57;96200.81;;;19.21;95.09
32933;BME280;19444;50.518;10.870;2023-06-19T04:15:54;96200.53;;;19.30;92.26
32933;BME280;19444;50.518;10.870;2023-06-19T04:18:51;96209.44;;;19.30;100.00
32933;BME280;19444;50.518;10.870;2023-06-19T04:21:48;96210.41;;;19.12;100.00
32933;BME280;19444;50.518;10.870;2023-06-19T04:24:45;96211.66;;;19.21;100.00
32933;BME280;19444;50.518;10.870;2023-06-19T04:27:42;96209.66;;;19.48;85.36
32933;BME280;19444;50.518;10.870;2023-06-19T04:30:41;96197.25;;;19.17;100.00
32933;BME280;19444;50.518;10.870;2023-06-19T04:33:39;96203.97;;;19.27;100.00
32933;BME280;19444;50.518;10.870;2023-06-19T04:36:41;96201.41;;;19.41;96.83
32933;BME280;19444;50.518;10.870;2023-06-19T04:39:38;96204.16;;;19.45;100.00
32933;BME280;19444;50.518;10.870;2023-06-19T04:42:34;96204.44;;;19.66;100.00
32933;BME280;19444;50.518;10.870;2023-06-19T04:45:31;96199.19;;;19.17;100.00
32933;BME280;19444;50.518;10.870;2023-06-19T04:48:29;96200.63;;;19.41;91.66
32933;BME280;19444;50.518;10.870;2023-06-19T04:51:26;96207.28;;;19.47;100.00
32933;BME280;19444;50.518;10.870;2023-06-19T04:54:26;96212.78;;;19.54;100.00
32933;BME280;19444;50.518;10.870;2023-06-19T04:57:23;96211.94;;;19.46;100.00
32933;BME280;19444;50.518;10.870;2023-06-19T05:00:20;96215.75;;;19.08;100.00
32933;BME280;19444;50.518;10.870;2023-06-19T05:03:20;96212.78;;;19.50;100.00
32933;BME280;19444;50.518;10.870;2023-06-19T05:06:18;96215.34;;;19.73;100.00
32933;BME280;19444;50.518;10.870;2023-06-19T05:09:15;96221.31;;;19.19;100.00
32933;BME280;19444;50.518;10.870;2023-06-19T05:12:12;96221.16;;;19.38;100.00
32933;BME280;19444;50.518;10.870;2023-06-19T05:15:10;96209.97;;;19.77;100.00
32933;BME280;19444;50.518;10.870;2023-06-19T05:18:07;96210.13;;;19.95;100.00
32933;BME280;19444;50.518;10.870;2023-06-19T05:21:04;96217.22;;;20.06;100.00
32933;BME280;19444;50.518;10.870;2023-06-19T05:24:01;96218.16;;;19.84;100.00
32933;BME280;19444;50.518;10.870;2023-06-19T05:26:58;96225.19;;;19.51;100.00
32933;BME280;19444;50.518;10.870;2023-06-19T05:29:55;96236.09;;;19.88;100.00
32933;BME280;19444;50.518;10.870;2023-06-19T05:32:52;96236.31;;;19.69;100.00
32933;BME280;19444;50.518;10.870;2023-06-19T05:35:49;96242.34;;;19.93;100.00
32933;BME280;19444;50.518;10.870;2023-06-19T05:38:49;96237.69;;;19.93;100.00
32933;BME280;19444;50.518;10.870;2023-06-19T05:41:46;96241.88;;;20.24;100.00
32933;BME280;19444;50.518;10.870;2023-06-19T05:44:43;96243.28;;;19.67;100.00
32933;BME280;19444;50.518;10.870;2023-06-19T05:47:40;96250.50;;;19.93;100.00
32933;BME280;19444;50.518;10.870;2023-06-19T05:50:37;96249.38;;;19.94;100.00
32933;BME280;19444;50.518;10.870;2023-06-19T05:53:34;96243.25;;;20.04;97.31
32933;BME280;19444;50.518;10.870;2023-06-19T05:56:31;96239.84;;;20.14;94.59
32933;BME280;19444;50.518;10.870;2023-06-19T05:59:30;96257.78;;;20.22;91.11
32933;BME280;19444;50.518;10.870;2023-06-19T06:02:27;96255.06;;;20.70;93.01
32933;BME280;19444;50.518;10.870;2023-06-19T06:05:26;96261.31;;;20.74;73.88
32933;BME280;19444;50.518;10.870;2023-06-19T06:08:23;96265.53;;;20.64;82.92
32933;BME280;19444;50.518;10.870;2023-06-19T06:11:22;96265.31;;;20.39;85.52
32933;BME280;19444;50.518;10.870;2023-06-19T06:14:19;96262.00;;;20.60;83.45
32933;BME280;19444;50.518;10.870;2023-06-19T06:17:16;96255.56;;;20.86;66.20
32933;BME280;19444;50.518;10.870;2023-06-19T06:20:13;96250.66;;;21.17;62.05
32933;BME280;19444;50.518;10.870;2023-06-19T06:23:10;96256.91;;;21.21;61.40
32933;BME280;19444;50.518;10.870;2023-06-19T06:26:07;96259.00;;;21.42;61.69
32933;BME280;19444;50.518;10.870;2023-06-19T06:29:04;96268.31;;;21.37;65.01
32933;BME280;19444;50.518;10.870;2023-06-19T06:32:08;96259.78;;;21.46;61.41
32933;BME280;19444;50.518;10.870;2023-06-19T06:35:06;96264.16;;;21.82;61.50
32933;BME280;19444;50.518;10.870;2023-06-19T06:38:03;96265.75;;;22.01;63.90
32933;BME280;19444;50.518;10.870;2023-06-19T06:41:00;96268.16;;;22.21;65.92
32933;BME280;19444;50.518;10.870;2023-06-19T06:43:57;96262.72;;;22.53;71.31
32933;BME280;19444;50.518;10.870;2023-06-19T06:46:54;96265.03;;;22.72;60.38
32933;BME280;19444;50.518;10.870;2023-06-19T06:49:52;96263.47;;;22.85;60.20
32933;BME280;19444;50.518;10.870;2023-06-19T06:52:49;96273.19;;;23.18;58.52
32933;BME280;19444;50.518;10.870;2023-06-19T06:55:46;96273.22;;;23.01;56.79
32933;BME280;19444;50.518;10.870;2023-06-19T06:58:43;96269.31;;;22.84;54.97
32933;BME280;19444;50.518;10.870;2023-06-19T07:01:43;96278.31;;;22.74;53.73
32933;BME280;19444;50.518;10.870;2023-06-19T07:04:40;96286.50;;;22.74;57.43
32933;BME280;19444;50.518;10.870;2023-06-19T07:07:37;96292.38;;;22.72;58.70
32933;BME280;19444;50.518;10.870;2023-06-19T07:10:34;96293.91;;;22.84;58.87
32933;BME280;19444;50.518;10.870;2023-06-19T07:13:31;96297.06;;;22.96;55.53
32933;BME280;19444;50.518;10.870;2023-06-19T07:16:28;96286.91;;;22.97;55.14
32933;BME280;19444;50.518;10.870;2023-06-19T07:19:25;96290.44;;;22.87;54.91
32933;BME280;19444;50.518;10.870;2023-06-19T07:22:22;96290.00;;;23.10;56.70
32933;BME280;19444;50.518;10.870;2023-06-19T07:25:19;96292.34;;;23.11;61.00
32933;BME280;19444;50.518;10.870;2023-06-19T07:28:16;96294.69;;;22.74;57.83
32933;BME280;19444;50.518;10.870;2023-06-19T07:31:13;96295.88;;;23.05;59.02
32933;BME280;19444;50.518;10.870;2023-06-19T07:34:10;96291.91;;;23.27;55.75
32933;BME280;19444;50.518;10.870;2023-06-19T07:37:07;96289.56;;;23.29;55.29
32933;BME280;19444;50.518;10.870;2023-06-19T07:40:04;96292.97;;;23.54;53.59
32933;BME280;19444;50.518;10.870;2023-06-19T07:43:02;96289.88;;;23.60;54.44
32933;BME280;19444;50.518;10.870;2023-06-19T07:45:58;96294.63;;;23.34;54.41
32933;BME280;19444;50.518;10.870;2023-06-19T07:48:56;96299.31;;;23.34;58.96
32933;BME280;19444;50.518;10.870;2023-06-19T07:51:52;96299.66;;;23.46;66.61
32933;BME280;19444;50.518;10.870;2023-06-19T07:54:54;96299.28;;;23.37;58.03
32933;BME280;19444;50.518;10.870;2023-06-19T07:57:51;96296.94;;;23.50;58.33
32933;BME280;19444;50.518;10.870;2023-06-19T08:00:49;96302.88;;;23.13;63.00
32933;BME280;19444;50.518;10.870;2023-06-19T08:03:46;96311.47;;;23.08;63.88
32933;BME280;19444;50.518;10.870;2023-06-19T08:06:43;96310.59;;;23.61;60.29
32933;BME280;19444;50.518;10.870;2023-06-19T08:09:40;96299.72;;;23.28;62.86
32933;BME280;19444;50.518;10.870;2023-06-19T08:12:37;96307.09;;;23.46;60.30
32933;BME280;19444;50.518;10.870;2023-06-19T08:15:34;96301.50;;;23.81;60.46
32933;BME280;19444;50.518;10.870;2023-06-19T08:18:31;96303.75;;;24.01;57.51
32933;BME280;19444;50.518;10.870;2023-06-19T08:21:28;96311.00;;;24.36;57.68
32933;BME280;19444;50.518;10.870;2023-06-19T08:24:25;96313.44;;;24.12;58.43
32933;BME280;19444;50.518;10.870;2023-06-19T08:27:22;96309.19;;;24.67;63.71
32933;BME280;19444;50.518;10.870;2023-06-19T08:30:19;96318.63;;;23.96;60.88
32933;BME280;19444;50.518;10.870;2023-06-19T08:33:16;96314.47;;;24.40;59.33
32933;BME280;19444;50.518;10.870;2023-06-19T08:36:14;96313.72;;;24.84;56.04
32933;BME280;19444;50.518;10.870;2023-06-19T08:39:11;96318.06;;;25.27;56.38
32933;BME280;19444;50.518;10.870;2023-06-19T08:42:08;96314.44;;;25.37;54.30
32933;BME280;19444;50.518;10.870;2023-06-19T08:45:07;96313.63;;;24.95;56.41
32933;BME280;19444;50.518;10.870;2023-06-19T08:48:04;96311.59;;;24.58;60.03
32933;BME280;19444;50.518;10.870;2023-06-19T08:51:02;96308.47;;;25.08;59.76
32933;BME280;19444;50.518;10.870;2023-06-19T08:54:06;96317.78;;;25.17;55.99
32933;BME280;19444;50.518;10.870;2023-06-19T08:57:03;96322.72;;;25.30;53.68
32933;BME280;19444;50.518;10.870;2023-06-19T09:00:00;96314.97;;;25.24;53.96
32933;BME280;19444;50.518;10.870;2023-06-19T09:03:02;96312.81;;;25.43;52.87
32933;BME280;19444;50.518;10.870;2023-06-19T09:06:09;96310.69;;;25.20;53.67
32933;BME280;19444;50.518;10.870;2023-06-19T09:09:06;96310.84;;;25.02;54.95
32933;BME280;19444;50.518;10.870;2023-06-19T09:12:12;96318.94;;;26.19;55.67
32933;BME280;19444;50.518;10.870;2023-06-19T09:15:14;96306.09;;;26.39;53.23
32933;BME280;19444;50.518;10.870;2023-06-19T09:18:11;96296.66;;;26.40;49.84
32933;BME280;19444;50.518;10.870;2023-06-19T09:21:19;96310.59;;;25.99;52.78
32933;BME280;19444;50.518;10.870;2023-06-19T09:24:18;96313.19;;;25.41;55.86
32933;BME280;19444;50.518;10.870;2023-06-19T09:27:18;96300.22;;;26.37;56.81
32933;BME280;19444;50.518;10.870;2023-06-19T09:30:16;96295.81;;;26.16;51.55
32933;BME280;19444;50.518;10.870;2023-06-19T09:33:13;96299.91;;;26.04;51.53
32933;BME280;19444;50.518;10.870;2023-06-19T09:39:15;96292.75;;;26.11;57.42
32933;BME280;19444;50.518;10.870;2023-06-19T09:42:15;96291.44;;;26.73;51.68
32933;BME280;19444;50.518;10.870;2023-06-19T09:45:14;96285.16;;;26.96;49.08
32933;BME280;19444;50.518;10.870;2023-06-19T09:48:19;96284.94;;;26.36;51.39
32933;BME280;19444;50.518;10.870;2023-06-19T09:51:19;96280.41;;;26.96;49.63
32933;BME280;19444;50.518;10.870;2023-06-19T09:54:17;96273.44;;;26.91;52.23
32933;BME280;19444;50.518;10.870;2023-06-19T09:57:14;96278.63;;;26.39;53.07
32933;BME280;19444;50.518;10.870;2023-06-19T10:00:12;96287.81;;;25.71;53.49
32933;BME280;19444;50.518;10.870;2023-06-19T10:03:12;96283.94;;;26.50;54.51
32933;BME280;19444;50.518;10.870;2023-06-19T10:06:15;96284.72;;;26.97;52.79
32933;BME280;19444;50.518;10.870;2023-06-19T10:09:16;96298.13;;;26.48;54.73
32933;BME280;19444;50.518;10.870;2023-06-19T10:12:17;96305.66;;;26.14;53.85
32933;BME280;19444;50.518;10.870;2023-06-19T10:15:23;96300.59;;;27.33;50.14
32933;BME280;19444;50.518;10.870;2023-06-19T10:18:21;96296.28;;;27.75;48.99
32933;BME280;19444;50.518;10.870;2023-06-19T10:21:19;96285.06;;;27.03;51.60
32933;BME280;19444;50.518;10.870;2023-06-19T10:24:19;96294.53;;;27.41;49.81
32933;BME280;19444;50.518;10.870;2023-06-19T10:27:24;96290.25;;;28.36;52.23
32933;BME280;19444;50.518;10.870;2023-06-19T10:30:21;96288.41;;;27.34;50.48
32933;BME280;19444;50.518;10.870;2023-06-19T10:33:18;96290.53;;;27.26;52.17
32933;BME280;19444;50.518;10.870;2023-06-19T10:36:20;96294.63;;;27.58;52.40
32933;BME280;19444;50.518;10.870;2023-06-19T10:39:19;96296.47;;;28.20;54.16
32933;BME280;19444;50.518;10.870;2023-06-19T10:42:17;96298.19;;;28.14;49.94
32933;BME280;19444;50.518;10.870;2023-06-19T10:45:14;96292.84;;;28.92;46.42
32933;BME280;19444;50.518;10.870;2023-06-19T10:48:20;96298.75;;;29.23;47.01
32933;BME280;19444;50.518;10.870;2023-06-19T10:51:19;96303.69;;;29.44;45.80
32933;BME280;19444;50.518;10.870;2023-06-19T10:54:16;96298.91;;;29.16;45.92
32933;BME280;19444;50.518;10.870;2023-06-19T10:57:13;96302.75;;;29.06;48.85
32933;BME280;19444;50.518;10.870;2023-06-19T11:00:11;96296.00;;;29.07;47.19
32933;BME280;19444;50.518;10.870;2023-06-19T11:03:11;96298.63;;;28.81;48.98
32933;BME280;19444;50.518;10.870;2023-06-19T11:06:08;96296.31;;;29.25;46.65
32933;BME280;19444;50.518;10.870;2023-06-19T11:09:10;96297.16;;;28.93;47.21
32933;BME280;19444;50.518;10.870;2023-06-19T11:12:07;96291.28;;;28.58;47.71
32933;BME280;19444;50.518;10.870;2023-06-19T11:15:05;96302.81;;;29.77;45.88
32933;BME280;19444;50.518;10.870;2023-06-19T11:18:04;96316.25;;;29.16;46.29
32933;BME280;19444;50.518;10.870;2023-06-19T11:21:02;96304.81;;;29.18;47.08
32933;BME280;19444;50.518;10.870;2023-06-19T11:23:59;96313.25;;;29.11;48.39
32933;BME280;19444;50.518;10.870;2023-06-19T11:26:57;96302.31;;;29.94;45.18
32933;BME280;19444;50.518;10.870;2023-06-19T11:29:59;96298.69;;;29.39;46.62
32933;BME280;19444;50.518;10.870;2023-06-19T11:32:56;96294.28;;;29.13;48.79
32933;BME280;19444;50.518;10.870;2023-06-19T11:35:54;96299.81;;;29.42;48.76
32933;BME280;19444;50.518;10.870;2023-06-19T11:38:56;96297.06;;;30.13;45.07
32933;BME280;19444;50.518;10.870;2023-06-19T11:41:53;96307.13;;;29.78;47.35
32933;BME280;19444;50.518;10.870;2023-06-19T11:45:00;96294.41;;;29.67;46.54
32933;BME280;19444;50.518;10.870;2023-06-19T11:48:05;96287.31;;;29.37;47.86
32933;BME280;19444;50.518;10.870;2023-06-19T11:51:02;96291.00;;;29.76;47.98
32933;BME280;19444;50.518;10.870;2023-06-19T11:54:00;96302.16;;;28.82;54.96
32933;BME280;19444;50.518;10.870;2023-06-19T11:56:56;96297.91;;;28.77;52.26
32933;BME280;19444;50.518;10.870;2023-06-19T11:59:53;96299.78;;;28.31;51.12
32933;BME280;19444;50.518;10.870;2023-06-19T12:02:51;96289.88;;;29.15;52.62
32933;BME280;19444;50.518;10.870;2023-06-19T12:05:49;96276.81;;;30.28;49.53
32933;BME280;19444;50.518;10.870;2023-06-19T12:08:46;96281.91;;;30.30;46.61
32933;BME280;19444;50.518;10.870;2023-06-19T12:11:43;96283.03;;;31.40;44.05
32933;BME280;19444;50.518;10.870;2023-06-19T12:14:40;96274.50;;;31.00;44.25
32933;BME280;19444;50.518;10.870;2023-06-19T12:17:36;96276.97;;;31.32;44.45
32933;BME280;19444;50.518;10.870;2023-06-19T12:20:34;96272.22;;;31.33;44.27
32933;BME280;19444;50.518;10.870;2023-06-19T12:23:31;96270.03;;;29.91;47.19
32933;BME280;19444;50.518;10.870;2023-06-19T12:26:28;96268.63;;;30.12;48.11
32933;BME280;19444;50.518;10.870;2023-06-19T12:29:25;96273.97;;;29.65;48.12
32933;BME280;19444;50.518;10.870;2023-06-19T12:32:23;96274.78;;;29.91;47.84
32933;BME280;19444;50.518;10.870;2023-06-19T12:35:20;96272.94;;;30.13;47.11
32933;BME280;19444;50.518;10.870;2023-06-19T12:38:17;96269.59;;;29.93;49.06
32933;BME280;19444;50.518;10.870;2023-06-19T12:41:15;96260.63;;;29.47;49.90
32933;BME280;19444;50.518;10.870;2023-06-19T12:44:12;96268.34;;;29.39;51.18
32933;BME280;19444;50.518;10.870;2023-06-19T12:47:09;96266.31;;;30.49;48.02
32933;BME280;19444;50.518;10.870;2023-06-19T12:50:07;96269.66;;;29.64;49.57
32933;BME280;19444;50.518;10.870;2023-06-19T12:53:04;96274.41;;;28.73;52.40
32933;BME280;19444;50.518;10.870;2023-06-19T12:56:01;96272.91;;;28.84;51.28
32933;BME280;19444;50.518;10.870;2023-06-19T12:59:04;96270.94;;;28.69;55.27
32933;BME280;19444;50.518;10.870;2023-06-19T13:02:01;96274.47;;;29.02;55.60
32933;BME280;19444;50.518;10.870;2023-06-19T13:04:58;96270.06;;;30.55;52.40
32933;BME280;19444;50.518;10.870;2023-06-19T13:07:55;96271.22;;;29.36;50.08
32933;BME280;19444;50.518;10.870;2023-06-19T13:10:52;96263.13;;;29.29;52.60
32933;BME280;19444;50.518;10.870;2023-06-19T13:13:49;96254.78;;;29.99;50.17
32933;BME280;19444;50.518;10.870;2023-06-19T13:16:46;96269.22;;;29.65;52.18
32933;BME280;19444;50.518;10.870;2023-06-19T13:19:43;96251.38;;;29.25;56.58
32933;BME280;19444;50.518;10.870;2023-06-19T13:22:40;96257.34;;;28.29;56.51
32933;BME280;19444;50.518;10.870;2023-06-19T13:25:37;96256.66;;;28.41;58.10
32933;BME280;19444;50.518;10.870;2023-06-19T13:28:34;96265.69;;;28.58;58.28
32933;BME280;19444;50.518;10.870;2023-06-19T13:31:32;96255.88;;;28.89;56.95
32933;BME280;19444;50.518;10.870;2023-06-19T13:34:29;96259.31;;;28.94;57.12
32933;BME280;19444;50.518;10.870;2023-06-19T13:37:25;96259.66;;;28.30;59.48
32933;BME280;19444;50.518;10.870;2023-06-19T13:40:23;96267.50;;;28.81;60.40
32933;BME280;19444;50.518;10.870;2023-06-19T13:43:20;96256.81;;;29.28;55.59
32933;BME280;19444;50.518;10.870;2023-06-19T13:46:20;96254.00;;;29.44;54.62
32933;BME280;19444;50.518;10.870;2023-06-19T13:49:18;96253.03;;;29.51;53.74
32933;BME280;19444;50.518;10.870;2023-06-19T13:52:15;96256.84;;;29.12;57.13
32933;BME280;19444;50.518;10.870;2023-06-19T13:55:13;96263.16;;;29.12;55.48
32933;BME280;19444;50.518;10.870;2023-06-19T13:58:11;96258.25;;;28.87;58.49
32933;BME280;19444;50.518;10.870;2023-06-19T14:01:08;96263.53;;;28.82;55.47
32933;BME280;19444;50.518;10.870;2023-06-19T14:04:05;96252.13;;;29.12;55.85
32933;BME280;19444;50.518;10.870;2023-06-19T14:07:02;96251.28;;;28.83;57.15
32933;BME280;19444;50.518;10.870;2023-06-19T14:09:59;96247.81;;;29.82;52.77
32933;BME280;19444;50.518;10.870;2023-06-19T14:12:57;96250.56;;;29.11;57.95
32933;BME280;19444;50.518;10.870;2023-06-19T14:15:54;96251.28;;;28.34;60.97
32933;BME280;19444;50.518;10.870;2023-06-19T14:18:51;96251.63;;;27.84;71.48
32933;BME280;19444;50.518;10.870;2023-06-19T14:21:48;96251.06;;;27.92;71.54
32933;BME280;19444;50.518;10.870;2023-06-19T14:24:45;96254.50;;;28.81;60.14
32933;BME280;19444;50.518;10.870;2023-06-19T14:27:42;96261.66;;;28.63;65.64
32933;BME280;19444;50.518;10.870;2023-06-19T14:30:39;96259.84;;;28.72;57.93
32933;BME280;19444;50.518;10.870;2023-06-19T14:33:36;96259.59;;;28.14;66.20
32933;BME280;19444;50.518;10.870;2023-06-19T14:36:34;96254.50;;;27.96;73.00
32933;BME280;19444;50.518;10.870;2023-06-19T14:39:31;96248.31;;;27.92;75.87
32933;BME280;19444;50.518;10.870;2023-06-19T14:42:28;96257.78;;;28.93;62.28
32933;BME280;19444;50.518;10.870;2023-06-19T14:45:25;96259.06;;;27.67;74.09
32933;BME280;19444;50.518;10.870;2023-06-19T14:48:22;96263.97;;;28.31;64.05
32933;BME280;19444;50.518;10.870;2023-06-19T14:51:19;96259.94;;;28.36;63.13
32933;BME280;19444;50.518;10.870;2023-06-19T14:54:16;96264.16;;;28.04;67.48
32933;BME280;19444;50.518;10.870;2023-06-19T14:57:14;96260.44;;;28.47;63.90
32933;BME280;19444;50.518;10.870;2023-06-19T15:00:12;96257.81;;;28.24;69.39
32933;BME280;19444;50.518;10.870;2023-06-19T15:03:09;96253.84;;;27.53;72.95
32933;BME280;19444;50.518;10.870;2023-06-19T15:06:06;96261.31;;;27.32;79.93
32933;BME280;19444;50.518;10.870;2023-06-19T15:09:03;96249.75;;;27.81;70.88
32933;BME280;19444;50.518;10.870;2023-06-19T15:12:01;96249.13;;;28.09;69.07
32933;BME280;19444;50.518;10.870;2023-06-19T15:14:58;96253.66;;;27.99;69.82
32933;BME280;19444;50.518;10.870;2023-06-19T15:17:55;96252.06;;;27.03;86.30
32933;BME280;19444;50.518;10.870;2023-06-19T15:20:52;96256.66;;;27.29;82.25
32933;BME280;19444;50.518;10.870;2023-06-19T15:23:53;96246.81;;;27.88;73.74
32933;BME280;19444;50.518;10.870;2023-06-19T15:26:51;96251.25;;;28.01;74.64
32933;BME280;19444;50.518;10.870;2023-06-19T15:29:48;96240.88;;;27.53;81.63
32933;BME280;19444;50.518;10.870;2023-06-19T15:32:45;96246.41;;;28.58;74.47
32933;BME280;19444;50.518;10.870;2023-06-19T15:35:42;96232.75;;;28.18;71.93